createdAt,value
2018-07-08T00:01:56.837Z,19.95
2018-07-08T00:04:26.506Z,19.97
2018-07-08T00:06:58.175Z,19.91
2018-07-08T00:09:27.718Z,19.83
2018-07-08T00:11:57.675Z,19.76
2018-07-08T00:14:27.278Z,19.75
2018-07-08T00:16:57.227Z,19.55
2018-07-08T00:19:30.886Z,19.50
2018-07-08T00:22:00.825Z,19.50
2018-07-08T00:24:30.543Z,19.54
2018-07-08T00:27:00.454Z,19.61
2018-07-08T00:29:30.521Z,19.55
2018-07-08T00:31:59.914Z,19.52
2018-07-08T00:34:29.731Z,19.55
2018-07-08T00:36:59.824Z,19.51
2018-07-08T00:39:29.561Z,19.48
2018-07-08T00:41:59.966Z,19.43
2018-07-08T00:44:29.641Z,19.26
2018-07-08T00:46:59.199Z,19.09
2018-07-08T00:49:28.733Z,19.11
2018-07-08T00:51:58.311Z,19.09
2018-07-08T00:54:27.842Z,19.07
2018-07-08T00:56:57.308Z,19.10
2018-07-08T00:59:26.961Z,19.14
2018-07-08T01:01:56.553Z,19.04
2018-07-08T01:04:26.381Z,18.95
2018-07-08T01:06:56.365Z,18.98
2018-07-08T01:09:25.738Z,19.04
2018-07-08T01:11:55.478Z,18.96
2018-07-08T01:14:25.507Z,18.93
2018-07-08T01:16:54.992Z,18.93
2018-07-08T01:19:24.458Z,18.83
2018-07-08T01:21:53.908Z,18.68
2018-07-08T01:24:23.949Z,18.72
2018-07-08T01:26:53.846Z,18.66
2018-07-08T01:29:24.104Z,18.73
2018-07-08T01:31:53.908Z,18.66
2018-07-08T01:34:25.219Z,18.68
2018-07-08T01:36:55.253Z,18.63
2018-07-08T01:39:24.724Z,18.58
2018-07-08T01:41:54.368Z,18.48
2018-07-08T01:44:23.876Z,18.39
2018-07-08T01:46:53.348Z,18.49
2018-07-08T01:49:24.129Z,18.43
2018-07-08T01:51:53.977Z,18.41
2018-07-08T01:54:24.457Z,18.30
2018-07-08T01:56:53.980Z,18.19
2018-07-08T01:59:23.580Z,18.16
2018-07-08T02:01:53.162Z,18.17
2018-07-08T02:04:23.030Z,18.14
2018-07-08T02:06:52.302Z,18.02
2018-07-08T02:09:22.457Z,17.96
2018-07-08T02:11:52.407Z,17.95
2018-07-08T02:14:22.964Z,17.93
2018-07-08T02:16:53.836Z,17.94
2018-07-08T02:19:23.777Z,17.89
2018-07-08T02:21:53.108Z,17.85
2018-07-08T02:24:23.551Z,17.71
2018-07-08T02:26:52.858Z,17.67
2018-07-08T02:29:22.965Z,17.65
2018-07-08T02:31:53.453Z,17.56
2018-07-08T02:34:23.894Z,17.52
2018-07-08T02:36:54.253Z,17.47
2018-07-08T02:39:25.964Z,17.45
2018-07-08T02:41:55.488Z,17.42
2018-07-08T02:44:25.014Z,17.37
2018-07-08T02:46:56.109Z,17.41
2018-07-08T02:49:26.397Z,17.33
2018-07-08T02:51:55.715Z,17.24
2018-07-08T02:54:25.385Z,17.36
2018-07-08T02:56:55.299Z,17.37
2018-07-08T02:59:25.111Z,17.37
2018-07-08T03:01:54.712Z,17.26
2018-07-08T03:04:24.788Z,17.18
2018-07-08T03:06:54.396Z,17.16
2018-07-08T03:09:24.202Z,17.09
2018-07-08T03:11:54.022Z,17.11
2018-07-08T03:14:23.630Z,17.12
2018-07-08T03:16:53.790Z,17.15
2018-07-08T03:19:23.742Z,16.99
2018-07-08T03:21:53.458Z,17.00
2018-07-08T03:24:23.037Z,17.02
2018-07-08T03:26:52.850Z,17.00
2018-07-08T03:29:22.815Z,17.01
2018-07-08T03:31:52.851Z,16.96
2018-07-08T03:34:22.652Z,16.93
2018-07-08T03:36:52.962Z,17.01
2018-07-08T03:39:23.642Z,16.96
2018-07-08T03:41:53.773Z,16.80
2018-07-08T03:44:23.525Z,16.84
2018-07-08T03:46:52.925Z,16.88
2018-07-08T03:49:23.491Z,16.93
2018-07-08T03:51:53.248Z,16.86
2018-07-08T03:54:33.240Z,16.84
2018-07-08T03:57:03.819Z,16.92
2018-07-08T03:59:33.757Z,16.84
2018-07-08T04:02:03.466Z,16.89
2018-07-08T04:04:33.240Z,16.77
2018-07-08T04:07:03.338Z,16.77
2018-07-08T04:09:33.074Z,16.67
2018-07-08T04:12:03.375Z,16.65
2018-07-08T04:14:32.922Z,16.70
2018-07-08T04:17:02.883Z,16.74
2018-07-08T04:19:33.025Z,16.78
2018-07-08T04:22:05.292Z,16.78
2018-07-08T04:24:34.802Z,16.82
2018-07-08T04:27:05.417Z,16.83
2018-07-08T04:29:35.093Z,16.80
2018-07-08T04:32:04.372Z,16.90
2018-07-08T04:34:34.293Z,16.93
2018-07-08T04:37:04.173Z,16.91
2018-07-08T04:39:33.962Z,17.00
2018-07-08T04:42:03.530Z,17.05
2018-07-08T04:44:33.532Z,16.99
2018-07-08T04:47:03.705Z,17.10
2018-07-08T04:49:33.353Z,17.11
2018-07-08T04:52:03.171Z,17.18
2018-07-08T04:54:33.488Z,17.25
2018-07-08T04:57:03.368Z,17.27
2018-07-08T04:59:33.404Z,17.30
2018-07-08T05:02:03.114Z,17.30
2018-07-08T05:04:32.474Z,17.35
2018-07-08T05:07:01.975Z,17.41
2018-07-08T05:09:31.789Z,17.40
2018-07-08T05:12:01.545Z,17.48
2018-07-08T05:14:31.779Z,17.42
2018-07-08T05:17:01.447Z,17.40
2018-07-08T05:19:31.449Z,17.45
2018-07-08T05:22:01.412Z,17.50
2018-07-08T05:24:31.473Z,17.54
2018-07-08T05:27:00.838Z,17.51
2018-07-08T05:29:30.433Z,17.56
2018-07-08T05:32:00.170Z,17.72
2018-07-08T05:34:29.705Z,17.81
2018-07-08T05:36:59.296Z,17.84
2018-07-08T05:39:29.305Z,17.59
2018-07-08T05:41:58.858Z,17.75
2018-07-08T05:44:28.946Z,17.83
2018-07-08T05:46:59.232Z,17.81
2018-07-08T05:49:29.203Z,17.93
2018-07-08T05:51:58.659Z,17.79
2018-07-08T05:54:28.408Z,17.80
2018-07-08T05:56:58.331Z,18.05
2018-07-08T05:59:27.682Z,17.81
2018-07-08T06:01:57.363Z,17.94
2018-07-08T06:04:27.504Z,18.19
2018-07-08T06:06:56.802Z,18.42
2018-07-08T06:09:29.290Z,18.61
2018-07-08T06:11:58.969Z,18.30
2018-07-08T06:14:29.530Z,18.20
2018-07-08T06:16:59.128Z,18.26
2018-07-08T06:19:28.661Z,18.52
2018-07-08T06:21:58.162Z,18.69
2018-07-08T06:24:27.921Z,18.02
2018-07-08T06:26:57.318Z,18.39
2018-07-08T06:29:27.013Z,18.55
2018-07-08T06:31:57.345Z,18.28
2018-07-08T06:34:27.381Z,18.21
2018-07-08T06:36:56.930Z,18.11
2018-07-08T06:39:27.259Z,18.14
2018-07-08T06:41:57.272Z,18.25
2018-07-08T06:44:27.527Z,18.28
2018-07-08T06:46:57.702Z,18.29
2018-07-08T06:49:27.370Z,18.27
2018-07-08T06:51:57.205Z,18.24
2018-07-08T06:54:26.841Z,18.39
2018-07-08T06:56:56.798Z,18.12
2018-07-08T06:59:26.570Z,18.03
2018-07-08T07:01:56.521Z,18.09
2018-07-08T07:04:26.029Z,18.34
2018-07-08T07:06:55.798Z,18.38
2018-07-08T07:09:25.244Z,18.41
2018-07-08T07:11:54.592Z,18.47
2018-07-08T07:14:24.958Z,18.53
2018-07-08T07:16:54.933Z,18.52
2018-07-08T07:19:24.440Z,18.61
2018-07-08T07:21:54.179Z,18.60
2018-07-08T07:24:24.462Z,18.49
2018-07-08T07:26:53.885Z,18.60
2018-07-08T07:29:23.675Z,18.57
2018-07-08T07:31:53.469Z,18.62
2018-07-08T07:34:23.552Z,18.68
2018-07-08T07:36:53.492Z,18.68
2018-07-08T07:39:23.420Z,18.61
2018-07-08T07:41:53.478Z,18.71
2018-07-08T07:44:23.419Z,18.83
2018-07-08T07:46:52.833Z,18.70
2018-07-08T07:49:22.876Z,18.84
2018-07-08T07:51:53.290Z,18.89
2018-07-08T07:54:23.405Z,18.97
2018-07-08T07:56:53.120Z,18.93
2018-07-08T07:59:23.620Z,19.04
2018-07-08T08:01:53.293Z,19.05
2018-07-08T08:04:23.547Z,19.01
2018-07-08T08:06:53.330Z,19.11
2018-07-08T08:09:23.271Z,19.17
2018-07-08T08:11:53.274Z,19.11
2018-07-08T08:14:24.752Z,19.28
2018-07-08T08:16:55.207Z,19.24
2018-07-08T08:19:24.611Z,19.41
2018-07-08T08:21:54.602Z,19.51
2018-07-08T08:24:24.387Z,19.39
2018-07-08T08:26:53.992Z,19.28
2018-07-08T08:29:23.553Z,19.32
2018-07-08T08:31:53.944Z,19.46
2018-07-08T08:34:56.506Z,19.50
2018-07-08T08:37:27.109Z,19.56
2018-07-08T08:39:56.605Z,19.62
2018-07-08T08:42:26.921Z,19.51
2018-07-08T08:44:57.337Z,19.60
2018-07-08T08:47:27.732Z,19.72
2018-07-08T08:49:57.536Z,19.91
2018-07-08T08:52:27.010Z,19.75
2018-07-08T08:54:57.461Z,19.78
2018-07-08T08:57:27.292Z,19.87
2018-07-08T08:59:57.625Z,19.89
2018-07-08T09:02:27.359Z,19.93
2018-07-08T09:04:57.054Z,19.87
2018-07-08T09:07:27.007Z,19.98
2018-07-08T09:09:56.844Z,20.06
2018-07-08T09:12:26.136Z,20.14
2018-07-08T09:14:55.981Z,20.17
2018-07-08T09:17:25.909Z,20.24
2018-07-08T09:19:55.362Z,20.29
2018-07-08T09:22:28.362Z,20.34
2018-07-08T09:24:59.124Z,20.39
2018-07-08T09:27:29.554Z,20.42
2018-07-08T09:29:59.082Z,20.55
2018-07-08T09:32:28.443Z,20.52
2018-07-08T09:34:57.936Z,20.58
2018-07-08T09:37:27.495Z,20.57
2018-07-08T09:39:56.821Z,20.66
2018-07-08T09:42:26.468Z,20.66
2018-07-08T09:44:56.280Z,20.83
2018-07-08T09:47:26.085Z,20.76
2018-07-08T09:49:55.792Z,20.86
2018-07-08T09:52:25.412Z,20.95
2018-07-08T09:54:55.503Z,21.14
2018-07-08T09:57:26.094Z,21.26
2018-07-08T09:59:59.139Z,21.25
2018-07-08T10:02:29.210Z,21.27
2018-07-08T10:04:58.902Z,21.23
2018-07-08T10:07:28.354Z,21.27
2018-07-08T10:09:58.155Z,21.42
2018-07-08T10:12:28.238Z,21.51
2018-07-08T10:14:57.982Z,21.57
2018-07-08T10:17:27.757Z,21.52
2018-07-08T10:20:01.134Z,21.43
2018-07-08T10:22:31.057Z,21.62
2018-07-08T10:25:00.942Z,21.61
2018-07-08T10:27:46.408Z,21.61
2018-07-08T10:30:15.862Z,21.79
2018-07-08T10:32:45.703Z,21.80
2018-07-08T10:35:25.210Z,21.56
2018-07-08T10:37:54.968Z,21.66
2018-07-08T10:40:24.818Z,21.82
2018-07-08T10:42:54.389Z,21.86
2018-07-08T10:45:24.444Z,22.09
2018-07-08T10:47:53.863Z,22.16
2018-07-08T10:50:24.162Z,21.97
2018-07-08T10:52:54.486Z,21.92
2018-07-08T10:55:24.848Z,22.03
2018-07-08T10:57:54.056Z,22.21
2018-07-08T11:00:24.458Z,22.38
2018-07-08T11:02:58.227Z,22.59
2018-07-08T11:05:29.944Z,22.59
2018-07-08T11:07:59.757Z,22.67
2018-07-08T11:10:29.360Z,22.76
2018-07-08T11:15:28.335Z,22.49
2018-07-08T11:17:58.101Z,22.46
2018-07-08T11:20:29.036Z,22.50
2018-07-08T11:22:58.910Z,22.75
2018-07-08T11:25:28.884Z,22.84
2018-07-08T11:27:58.297Z,22.87
2018-07-08T11:30:27.820Z,22.84
2018-07-08T11:32:57.630Z,22.91
2018-07-08T11:35:26.903Z,22.99
2018-07-08T11:37:57.579Z,23.04
2018-07-08T11:40:27.068Z,23.01
2018-07-08T11:42:56.767Z,23.09
2018-07-08T11:45:26.402Z,23.42
2018-07-08T11:47:56.412Z,23.24
2018-07-08T11:50:25.960Z,23.23
2018-07-08T11:52:56.047Z,23.41
2018-07-08T11:55:26.259Z,23.46
2018-07-08T11:57:56.245Z,23.37
2018-07-08T12:00:26.164Z,23.33
2018-07-08T12:02:56.116Z,23.38
2018-07-08T12:05:25.506Z,23.68
2018-07-08T12:07:55.074Z,23.84
2018-07-08T12:10:25.225Z,24.00
2018-07-08T12:12:55.126Z,24.06
2018-07-08T12:15:24.656Z,23.97
2018-07-08T12:17:54.361Z,23.90
2018-07-08T12:20:24.867Z,23.74
2018-07-08T12:22:55.063Z,23.88
2018-07-08T12:25:24.898Z,24.13
2018-07-08T12:27:54.698Z,24.08
2018-07-08T12:30:24.258Z,23.90
2018-07-08T12:32:54.419Z,23.67
2018-07-08T12:35:24.295Z,23.85
2018-07-08T12:37:54.186Z,24.01
2018-07-08T12:40:24.134Z,24.17
2018-07-08T12:42:53.837Z,24.30
2018-07-08T12:45:24.068Z,24.30
2018-07-08T12:47:54.238Z,24.44
2018-07-08T12:50:24.297Z,24.55
2018-07-08T12:52:54.041Z,24.58
2018-07-08T12:55:23.896Z,24.68
2018-07-08T12:57:53.431Z,24.60
2018-07-08T13:00:23.253Z,24.66
2018-07-08T13:02:52.821Z,24.81
2018-07-08T13:05:22.199Z,24.57
2018-07-08T13:07:51.962Z,24.41
2018-07-08T13:10:21.579Z,24.19
2018-07-08T13:12:51.676Z,24.40
2018-07-08T13:15:21.378Z,24.83
2018-07-08T13:17:51.630Z,25.14
2018-07-08T13:20:21.009Z,25.16
2018-07-08T13:22:52.094Z,25.41
2018-07-08T13:25:21.758Z,25.46
2018-07-08T13:27:52.016Z,25.61
2018-07-08T13:30:21.962Z,25.31
2018-07-08T13:32:52.137Z,25.19
2018-07-08T13:35:22.284Z,24.78
2018-07-08T13:37:52.314Z,24.57
2018-07-08T13:40:21.723Z,24.67
2018-07-08T13:42:52.014Z,25.07
2018-07-08T13:45:21.425Z,25.29
2018-07-08T13:47:51.198Z,25.30
2018-07-08T13:50:20.912Z,25.40
2018-07-08T13:52:51.275Z,25.49
2018-07-08T13:55:21.230Z,25.22
2018-07-08T13:57:50.539Z,25.17
2018-07-08T14:00:20.292Z,25.27
2018-07-08T14:02:50.290Z,25.37
2018-07-08T14:05:20.209Z,25.58
2018-07-08T14:07:50.171Z,25.71
2018-07-08T14:10:20.322Z,25.63
2018-07-08T14:12:50.496Z,25.78
2018-07-08T14:15:20.551Z,25.81
2018-07-08T14:17:50.551Z,25.85
2018-07-08T14:20:20.307Z,25.94
2018-07-08T14:22:51.061Z,25.70
2018-07-08T14:25:21.371Z,25.67
2018-07-08T14:27:51.268Z,25.77
2018-07-08T14:30:21.105Z,25.69
2018-07-08T14:32:51.628Z,25.70
2018-07-08T14:35:21.250Z,25.57
2018-07-08T14:37:51.113Z,25.46
2018-07-08T14:40:20.614Z,25.56
2018-07-08T14:42:50.326Z,25.47
2018-07-08T14:45:19.671Z,25.50
2018-07-08T14:47:49.254Z,25.63
2018-07-08T14:50:19.174Z,25.68
2018-07-08T14:52:48.686Z,25.64
2018-07-08T14:55:18.222Z,25.69
2018-07-08T14:57:48.096Z,25.66
2018-07-08T15:00:18.326Z,25.60
2018-07-08T15:02:48.149Z,25.84
2018-07-08T15:05:17.774Z,25.89
2018-07-08T15:07:51.257Z,25.95
2018-07-08T15:10:20.802Z,25.87
2018-07-08T15:12:51.029Z,25.83
2018-07-08T15:15:20.963Z,25.66
2018-07-08T15:17:56.103Z,25.74
2018-07-08T15:20:26.133Z,25.76
2018-07-08T15:22:55.853Z,25.70
2018-07-08T15:25:25.410Z,25.67
2018-07-08T15:27:54.771Z,25.57
2018-07-08T15:30:25.082Z,25.61
2018-07-08T15:32:54.532Z,25.72
2018-07-08T15:35:23.820Z,25.76
2018-07-08T15:37:53.380Z,25.63
2018-07-08T15:40:23.082Z,25.70
2018-07-08T15:42:52.960Z,25.71
2018-07-08T15:45:23.452Z,25.63
2018-07-08T15:47:53.336Z,25.53
2018-07-08T15:50:27.244Z,25.34
2018-07-08T15:52:56.503Z,25.19
2018-07-08T15:55:26.059Z,25.18
2018-07-08T15:57:55.852Z,25.21
2018-07-08T16:00:25.516Z,25.20
2018-07-08T16:02:55.785Z,25.14
2018-07-08T16:05:26.128Z,25.13
2018-07-08T16:07:55.902Z,25.03
2018-07-08T16:10:26.220Z,25.08
2018-07-08T16:12:56.368Z,25.15
2018-07-08T16:15:25.679Z,24.93
2018-07-08T16:17:55.400Z,24.91
2018-07-08T16:20:25.187Z,24.94
2018-07-08T16:22:55.130Z,24.98
2018-07-08T16:25:24.680Z,24.95
2018-07-08T16:27:54.338Z,24.97
2018-07-08T16:30:23.902Z,24.98
2018-07-08T16:32:53.542Z,24.96
2018-07-08T16:35:24.139Z,25.08
2018-07-08T16:37:54.212Z,25.09
2018-07-08T16:40:24.356Z,25.10
2018-07-08T16:42:54.501Z,25.11
2018-07-08T16:45:28.606Z,25.04
2018-07-08T16:47:57.976Z,25.11
2018-07-08T16:50:28.170Z,25.20
2018-07-08T16:52:58.368Z,25.19
2018-07-08T16:55:28.040Z,25.22
2018-07-08T16:57:57.972Z,25.17
2018-07-08T17:00:27.842Z,25.15
2018-07-08T17:02:57.186Z,25.11
2018-07-08T17:05:28.111Z,25.04
2018-07-08T17:07:58.364Z,25.08
2018-07-08T17:10:28.979Z,25.13
2018-07-08T17:12:59.062Z,25.16
2018-07-08T17:15:28.866Z,25.15
2018-07-08T17:17:58.248Z,25.16
2018-07-08T17:20:27.863Z,25.07
2018-07-08T17:22:57.723Z,25.03
2018-07-08T17:25:30.735Z,24.95
2018-07-08T17:28:00.052Z,24.95
2018-07-08T17:30:29.467Z,24.96
2018-07-08T17:32:58.738Z,24.98
2018-07-08T17:35:30.081Z,24.91
2018-07-08T17:38:00.142Z,24.97
2018-07-08T17:40:30.359Z,25.02
2018-07-08T17:43:00.404Z,24.95
2018-07-08T17:45:30.229Z,24.90
2018-07-08T17:48:00.159Z,24.89
2018-07-08T17:50:29.908Z,24.86
2018-07-08T17:53:00.028Z,24.85
2018-07-08T17:55:29.679Z,24.84
2018-07-08T17:57:59.476Z,24.77
2018-07-08T18:00:29.205Z,24.71
2018-07-08T18:02:58.809Z,24.72
2018-07-08T18:05:29.115Z,24.71
2018-07-08T18:07:58.755Z,24.70
2018-07-08T18:10:28.523Z,24.69
2018-07-08T18:12:58.145Z,24.70
2018-07-08T18:15:27.786Z,24.72
2018-07-08T18:17:57.297Z,24.67
2018-07-08T18:20:26.869Z,24.61
2018-07-08T18:22:57.245Z,24.59
2018-07-08T18:25:27.042Z,24.58
2018-07-08T18:27:56.944Z,24.51
2018-07-08T18:30:26.598Z,24.51
2018-07-08T18:32:56.067Z,24.49
2018-07-08T18:35:25.901Z,24.46
2018-07-08T18:37:56.173Z,24.43
2018-07-08T18:40:26.600Z,24.39
2018-07-08T18:42:56.413Z,24.41
2018-07-08T18:45:26.407Z,24.40
2018-07-08T18:47:56.213Z,24.35
2018-07-08T18:50:26.367Z,24.27
2018-07-08T18:52:56.499Z,24.26
2018-07-08T18:55:26.311Z,24.23
2018-07-08T18:57:57.882Z,24.22
2018-07-08T19:00:28.704Z,24.20
2018-07-08T19:02:58.327Z,24.17
2018-07-08T19:05:27.934Z,24.15
2018-07-08T19:07:57.426Z,24.10
2018-07-08T19:10:30.907Z,24.07
2018-07-08T19:13:01.152Z,24.02
2018-07-08T19:15:30.489Z,23.99
2018-07-08T19:18:00.668Z,23.97
2018-07-08T19:20:29.978Z,23.97
2018-07-08T19:22:59.385Z,23.89
2018-07-08T19:25:29.115Z,23.84
2018-07-08T19:27:58.986Z,23.79
2018-07-08T19:30:31.704Z,23.76
2018-07-08T19:33:01.269Z,23.70
2018-07-08T19:35:31.408Z,23.67
2018-07-08T19:38:01.214Z,23.62
2018-07-08T19:40:30.656Z,23.58
2018-07-08T19:43:00.096Z,23.57
2018-07-08T19:45:29.697Z,23.52
2018-07-08T19:47:59.407Z,23.47
2018-07-08T19:50:28.759Z,23.46
2018-07-08T19:52:58.585Z,23.42
2018-07-08T19:55:29.085Z,23.40
2018-07-08T19:57:58.963Z,23.34
2018-07-08T20:00:28.982Z,23.28
2018-07-08T20:02:58.859Z,23.26
2018-07-08T20:05:28.577Z,23.21
2018-07-08T20:07:58.952Z,23.18
2018-07-08T20:10:29.105Z,23.13
2018-07-08T20:12:59.205Z,23.15
2018-07-08T20:15:28.985Z,23.09
2018-07-08T20:17:58.929Z,23.06
2018-07-08T20:20:28.531Z,23.02
2018-07-08T20:22:58.210Z,22.98
2018-07-08T20:25:28.252Z,22.93
2018-07-08T20:27:57.725Z,22.86
2018-07-08T20:30:27.753Z,22.83
2018-07-08T20:32:57.313Z,22.85
2018-07-08T20:35:27.080Z,22.76
2018-07-08T20:37:56.323Z,22.80
2018-07-08T20:40:29.726Z,22.77
2018-07-08T20:42:59.391Z,22.74
2018-07-08T20:45:33.283Z,22.64
2018-07-08T20:48:03.163Z,22.61
2018-07-08T20:50:33.146Z,22.59
2018-07-08T20:53:02.939Z,22.59
2018-07-08T20:55:32.850Z,22.55
2018-07-08T20:58:02.163Z,22.54
2018-07-08T21:00:31.655Z,22.50
2018-07-08T21:03:01.385Z,22.46
2018-07-08T21:05:31.266Z,22.39
2018-07-08T21:08:01.319Z,22.39
2018-07-08T21:10:30.795Z,22.32
2018-07-08T21:13:01.269Z,22.33
2018-07-08T21:15:31.693Z,22.21
2018-07-08T21:18:01.388Z,22.18
2018-07-08T21:20:31.277Z,22.17
2018-07-08T21:23:00.848Z,22.15
2018-07-08T21:25:31.515Z,22.18
2018-07-08T21:28:02.067Z,22.07
2018-07-08T21:30:32.162Z,22.02
2018-07-08T21:33:01.713Z,21.93
2018-07-08T21:35:31.227Z,21.98
2018-07-08T21:38:01.107Z,21.90
2018-07-08T21:40:31.107Z,21.91
2018-07-08T21:43:00.352Z,21.84
2018-07-08T21:45:30.015Z,21.80
2018-07-08T21:48:00.063Z,21.80
2018-07-08T21:50:30.471Z,21.84
2018-07-08T21:53:00.962Z,21.72
2018-07-08T21:55:30.724Z,21.59
2018-07-08T21:58:00.547Z,21.59
2018-07-08T22:00:32.256Z,21.59
2018-07-08T22:03:02.412Z,21.57
2018-07-08T22:05:32.738Z,21.56
2018-07-08T22:08:03.513Z,21.57
2018-07-08T22:10:33.774Z,21.52
2018-07-08T22:13:04.207Z,21.47
2018-07-08T22:15:33.918Z,21.40
2018-07-08T22:18:03.768Z,21.50
2018-07-08T22:20:33.634Z,21.48
2018-07-08T22:23:03.544Z,21.43
2018-07-08T22:25:33.712Z,21.48
2018-07-08T22:28:04.224Z,21.37
2018-07-08T22:30:33.826Z,21.24
2018-07-08T22:33:03.269Z,21.17
2018-07-08T22:35:33.439Z,21.10
2018-07-08T22:38:03.314Z,21.13
2018-07-08T22:40:33.510Z,21.16
2018-07-08T22:43:03.599Z,21.17
2018-07-08T22:45:33.229Z,21.11
2018-07-08T22:48:02.852Z,21.07
2018-07-08T22:50:32.475Z,20.96
2018-07-08T22:53:02.653Z,21.04
2018-07-08T22:55:32.466Z,20.99
2018-07-08T22:58:01.936Z,20.99
2018-07-08T23:00:42.242Z,20.96
2018-07-08T23:03:27.781Z,20.92
2018-07-08T23:05:57.320Z,21.00
2018-07-08T23:08:26.708Z,20.93
2018-07-08T23:10:57.616Z,20.87
2018-07-08T23:13:27.624Z,20.89
2018-07-08T23:15:57.303Z,20.84
2018-07-08T23:18:28.118Z,20.89
2018-07-08T23:20:58.264Z,20.79
2018-07-08T23:23:27.977Z,20.76
2018-07-08T23:25:57.552Z,20.74
2018-07-08T23:28:27.254Z,20.65
2018-07-08T23:30:57.208Z,20.62
2018-07-08T23:33:27.617Z,20.53
2018-07-08T23:35:57.548Z,20.48
2018-07-08T23:38:27.472Z,20.51
2018-07-08T23:40:57.791Z,20.58
2018-07-08T23:43:28.282Z,20.53
2018-07-08T23:45:57.783Z,20.41
2018-07-08T23:48:28.146Z,20.38
2018-07-08T23:50:58.217Z,20.32
2018-07-08T23:53:28.096Z,20.26
2018-07-08T23:55:57.846Z,20.28
2018-07-08T23:58:27.148Z,20.27
